Time;durP1;ratioP1;P1;durP2;ratioP2;P2;SDS_P1;SDS_P2;PMS_P1;PMS_P2;Temp;Humidity;BMP_temperature;BMP_pressure;BME280_temperature;BME280_humidity;BME280_pressure;Samples;Min_cycle;Max_cycle;Signal;HPM_P1;HPM_P2
2021/09/17 00:01:41;;;;;;;2.45;2.10;;;15.10;53.30;;;;;;5106561;28;20220;-55
2021/09/17 00:04:11;;;;;;;2.05;1.70;;;15.20;53.30;;;;;;5112820;28;20228;-56
2021/09/17 00:06:40;;;;;;;2.30;1.63;;;15.10;53.20;;;;;;5082777;28;20199;-58
2021/09/17 00:09:10;;;;;;;2.53;1.60;;;15.20;53.20;;;;;;5072503;28;20222;-58
2021/09/17 00:11:40;;;;;;;4.57;1.95;;;15.20;53.10;;;;;;5072341;28;20332;-59
2021/09/17 00:14:11;;;;;;;2.60;1.88;;;15.20;53.10;;;;;;5071806;28;20206;-53
2021/09/17 00:16:41;;;;;;;3.72;2.22;;;15.20;53.00;;;;;;5084337;28;20250;-59
2021/09/17 00:19:11;;;;;;;3.58;2.08;;;15.20;53.60;;;;;;5092576;28;20229;-50
2021/09/17 00:21:41;;;;;;;2.90;1.90;;;15.20;53.10;;;;;;5092457;28;20225;-54
2021/09/17 00:24:10;;;;;;;2.47;1.83;;;15.20;53.10;;;;;;5091500;28;20210;-59
2021/09/17 00:26:40;;;;;;;4.60;2.10;;;15.20;53.00;;;;;;5092402;28;20213;-47
2021/09/17 00:29:11;;;;;;;3.88;2.03;;;15.20;53.10;;;;;;5090940;28;20230;-48
2021/09/17 00:31:41;;;;;;;3.85;2.22;;;15.20;53.10;;;;;;5092084;28;20205;-58
2021/09/17 00:34:11;;;;;;;2.88;2.03;;;15.30;53.10;;;;;;5089100;28;20209;-58
2021/09/17 00:36:41;;;;;;;4.28;2.10;;;15.30;53.10;;;;;;5091169;28;20206;-59
2021/09/17 00:39:13;;;;;;;2.90;2.05;;;15.30;53.00;;;;;;5092301;28;20209;-53
2021/09/17 00:41:43;;;;;;;2.28;1.83;;;15.30;53.00;;;;;;5074344;28;20860;-57
2021/09/17 00:44:19;;;;;;;2.47;1.80;;;15.30;53.00;;;;;;5091660;28;20198;-58
2021/09/17 00:46:50;;;;;;;3.30;2.20;;;15.30;53.50;;;;;;5091659;28;20205;-59
2021/09/17 00:49:20;;;;;;;2.50;1.63;;;15.30;52.90;;;;;;5092083;28;20270;-59
2021/09/17 00:51:49;;;;;;;3.35;2.15;;;15.30;52.90;;;;;;5088790;28;20205;-59
2021/09/17 00:54:19;;;;;;;3.72;2.03;;;15.30;52.80;;;;;;5091560;28;20229;-53
2021/09/17 00:56:49;;;;;;;3.47;1.90;;;15.30;52.80;;;;;;5090846;28;20251;-59
2021/09/17 00:59:20;;;;;;;3.35;2.03;;;15.30;52.90;;;;;;5091959;28;20558;-52
2021/09/17 01:01:50;;;;;;;2.60;1.70;;;15.30;52.90;;;;;;5091710;28;20214;-58
2021/09/17 01:04:20;;;;;;;3.60;2.00;;;15.30;53.10;;;;;;5091243;28;20206;-46
2021/09/17 01:06:50;;;;;;;2.53;1.58;;;15.40;53.10;;;;;;5090372;28;20206;-45
2021/09/17 01:09:19;;;;;;;3.95;2.03;;;15.30;53.00;;;;;;5090645;28;20233;-53
2021/09/17 01:11:49;;;;;;;1.95;1.63;;;15.40;53.00;;;;;;5091352;28;20202;-52
2021/09/17 01:14:21;;;;;;;3.20;2.15;;;15.40;53.00;;;;;;5089880;28;20280;-51
2021/09/17 01:16:51;;;;;;;1.98;1.67;;;15.40;53.00;;;;;;5091512;28;20237;-51
2021/09/17 01:19:20;;;;;;;1.70;1.50;;;15.40;53.60;;;;;;5090454;28;20210;-53
2021/09/17 01:21:52;;;;;;;2.40;1.70;;;15.40;53.00;;;;;;5090478;28;20656;-58
2021/09/17 01:24:22;;;;;;;3.17;1.50;;;15.40;53.00;;;;;;5070987;28;20202;-57
2021/09/17 01:26:52;;;;;;;3.22;2.00;;;15.40;53.00;;;;;;5077577;28;20288;-56
2021/09/17 01:29:22;;;;;;;4.78;1.95;;;15.40;52.90;;;;;;5088429;28;20229;-58
2021/09/17 01:31:52;;;;;;;2.30;1.67;;;15.40;52.90;;;;;;5091663;28;20289;-49
2021/09/17 01:34:22;;;;;;;2.97;1.90;;;15.40;52.90;;;;;;5091306;28;20206;-52
2021/09/17 01:36:53;;;;;;;2.53;1.80;;;15.40;52.90;;;;;;5091028;28;20206;-50
2021/09/17 01:39:25;;;;;;;2.95;1.80;;;15.50;53.00;;;;;;5090857;28;20209;-54
2021/09/17 01:41:55;;;;;;;2.30;1.48;;;15.40;53.00;;;;;;5091542;28;20248;-54
2021/09/17 01:44:25;;;;;;;1.92;1.55;;;15.40;52.90;;;;;;5086859;28;20264;-59
2021/09/17 01:46:55;;;;;;;2.10;1.63;;;15.50;53.00;;;;;;5098337;28;20212;-58
2021/09/17 01:49:25;;;;;;;2.67;1.77;;;15.50;53.00;;;;;;5077764;28;20230;-50
2021/09/17 01:51:56;;;;;;;2.33;1.60;;;15.50;53.00;;;;;;5069934;28;20572;-57
2021/09/17 01:54:26;;;;;;;2.33;1.52;;;15.50;53.00;;;;;;5070767;28;20207;-49
2021/09/17 01:56:56;;;;;;;2.78;1.60;;;15.50;53.00;;;;;;5070454;28;20203;-59
2021/09/17 01:59:26;;;;;;;3.30;1.67;;;15.60;53.00;;;;;;5088193;28;20205;-51
2021/09/17 02:01:56;;;;;;;2.70;1.70;;;15.60;53.00;;;;;;5087210;28;20221;-53
2021/09/17 02:04:26;;;;;;;3.05;1.65;;;15.60;52.90;;;;;;5088280;28;20210;-54
2021/09/17 02:06:58;;;;;;;2.00;1.73;;;15.50;52.80;;;;;;5087004;28;20689;-59
2021/09/17 02:09:31;;;;;;;2.42;1.67;;;15.60;52.80;;;;;;5090143;28;20226;-59
2021/09/17 02:12:01;;;;;;;3.08;1.73;;;15.60;52.60;;;;;;5089520;28;20202;-50
2021/09/17 02:14:31;;;;;;;3.15;2.08;;;15.60;52.60;;;;;;5090156;28;20201;-58
2021/09/17 02:17:10;;;;;;;1.80;1.38;;;15.60;52.50;;;;;;5087719;28;20206;-53
2021/09/17 02:19:40;;;;;;;2.53;1.63;;;15.60;52.50;;;;;;5059892;28;20202;-58
2021/09/17 02:22:20;;;;;;;1.40;1.20;;;15.60;52.40;;;;;;5099152;28;20274;-54
2021/09/17 02:24:49;;;;;;;1.63;1.50;;;15.60;52.50;;;;;;5090041;28;20729;-58
2021/09/17 02:27:19;;;;;;;3.50;1.52;;;15.60;52.60;;;;;;5110721;28;20712;-57
2021/09/17 02:29:49;;;;;;;2.20;1.50;;;15.60;52.60;;;;;;5075996;28;20218;-56
2021/09/17 02:32:19;;;;;;;2.33;1.52;;;15.70;52.60;;;;;;5089798;28;20510;-54
2021/09/17 02:34:49;;;;;;;2.03;1.50;;;15.60;52.60;;;;;;5087683;28;20565;-56
2021/09/17 02:37:20;;;;;;;1.60;1.35;;;15.70;52.60;;;;;;5090216;28;20259;-51
2021/09/17 02:39:49;;;;;;;2.63;1.48;;;15.70;52.60;;;;;;5087638;28;20205;-54
2021/09/17 02:42:19;;;;;;;1.75;1.48;;;15.70;52.60;;;;;;5109410;28;20229;-58
2021/09/17 02:44:52;;;;;;;3.58;2.33;;;15.70;52.60;;;;;;5110328;28;20660;-59
2021/09/17 02:47:24;;;;;;;3.00;2.33;;;15.70;52.60;;;;;;5109059;28;20211;-57
2021/09/17 02:49:54;;;;;;;4.45;3.47;;;15.70;52.50;;;;;;5092620;28;20276;-59
2021/09/17 02:52:25;;;;;;;5.38;3.20;;;15.70;52.30;;;;;;5068696;28;20242;-59
2021/09/17 02:54:55;;;;;;;4.15;3.22;;;15.70;52.10;;;;;;5105065;28;20548;-58
2021/09/17 02:57:25;;;;;;;3.78;2.63;;;15.70;52.10;;;;;;5109159;28;20205;-58
2021/09/17 02:59:55;;;;;;;3.78;2.90;;;15.70;52.10;;;;;;5089578;28;20206;-58
2021/09/17 03:02:25;;;;;;;3.90;2.65;;;15.70;52.20;;;;;;5089614;28;20229;-59
2021/09/17 03:04:55;;;;;;;3.28;2.50;;;15.70;52.20;;;;;;5088931;28;20210;-58
2021/09/17 03:07:26;;;;;;;3.30;2.80;;;15.80;52.30;;;;;;5085495;28;20777;-59
2021/09/17 03:09:56;;;;;;;3.67;2.72;;;15.80;52.30;;;;;;5088914;28;20226;-53
2021/09/17 03:12:25;;;;;;;3.50;2.70;;;15.80;52.40;;;;;;5089249;28;20230;-57
2021/09/17 03:14:55;;;;;;;3.42;2.72;;;15.80;52.40;;;;;;5088996;28;20217;-54
2021/09/17 03:17:25;;;;;;;3.38;2.75;;;15.80;52.40;;;;;;5090114;28;20279;-55
2021/09/17 03:19:55;;;;;;;4.07;2.90;;;15.90;52.40;;;;;;5089166;28;20206;-57
2021/09/17 03:22:26;;;;;;;3.25;2.88;;;15.90;52.40;;;;;;5089084;28;20222;-53
2021/09/17 03:24:56;;;;;;;3.67;2.60;;;15.90;52.40;;;;;;5089476;28;20241;-57
2021/09/17 03:27:26;;;;;;;4.55;2.70;;;15.90;52.30;;;;;;5089174;28;20255;-58
2021/09/17 03:29:56;;;;;;;3.55;2.67;;;16.00;52.30;;;;;;5090545;28;20588;-55
2021/09/17 03:32:26;;;;;;;2.85;2.50;;;16.00;52.30;;;;;;5091716;28;20217;-58
2021/09/17 03:34:55;;;;;;;4.07;2.70;;;16.00;52.20;;;;;;5093214;28;20205;-58
2021/09/17 03:37:26;;;;;;;3.45;2.47;;;16.00;52.00;;;;;;5091877;28;20232;-58
2021/09/17 03:39:57;;;;;;;4.10;2.60;;;16.00;51.90;;;;;;5085690;28;20656;-58
2021/09/17 03:42:28;;;;;;;4.18;2.80;;;16.10;52.40;;;;;;5092590;28;20233;-59
2021/09/17 03:44:58;;;;;;;3.20;2.70;;;16.10;51.80;;;;;;5092767;28;20250;-57
2021/09/17 03:47:28;;;;;;;2.95;2.30;;;16.10;51.80;;;;;;5092349;28;20202;-58
2021/09/17 03:49:58;;;;;;;3.85;2.45;;;16.10;51.80;;;;;;5093274;28;20230;-55
2021/09/17 03:52:29;;;;;;;3.20;2.35;;;16.10;51.90;;;;;;5075439;28;20580;-58
2021/09/17 03:54:59;;;;;;;5.90;2.70;;;16.10;51.90;;;;;;5073251;28;20195;-59
2021/09/17 03:57:29;;;;;;;3.53;2.72;;;16.10;51.90;;;;;;5074156;28;20394;-58
2021/09/17 03:59:58;;;;;;;3.47;2.55;;;16.20;51.90;;;;;;5093425;28;20213;-60
2021/09/17 04:02:28;;;;;;;11.30;5.93;;;16.20;51.90;;;;;;5093891;28;20229;-59
2021/09/17 04:04:58;;;;;;;11.77;6.25;;;16.20;52.30;;;;;;5090324;28;20576;-59
2021/09/17 04:07:29;;;;;;;10.93;6.22;;;16.20;51.70;;;;;;5092074;28;20210;-58
2021/09/17 04:09:59;;;;;;;8.40;5.13;;;16.20;51.70;;;;;;5093047;28;20260;-54
2021/09/17 04:12:29;;;;;;;8.90;5.55;;;16.20;51.70;;;;;;5083342;28;20512;-53
2021/09/17 04:14:59;;;;;;;8.27;5.05;;;16.20;52.00;;;;;;5090342;28;20199;-59
2021/09/17 04:17:28;;;;;;;11.65;6.18;;;16.30;52.00;;;;;;5092594;28;20565;-52
2021/09/17 04:19:58;;;;;;;11.80;6.60;;;16.30;52.10;;;;;;5091484;28;20682;-54
2021/09/17 04:22:29;;;;;;;11.60;7.43;;;16.30;52.00;;;;;;5092513;28;20233;-59
2021/09/17 04:24:59;;;;;;;10.88;6.28;;;16.30;52.10;;;;;;5089662;28;20202;-56
2021/09/17 04:27:29;;;;;;;8.57;6.10;;;16.30;52.10;;;;;;5092619;28;20228;-58
2021/09/17 04:29:59;;;;;;;11.50;6.32;;;16.30;52.00;;;;;;5091670;28;20308;-50
2021/09/17 04:32:28;;;;;;;8.05;5.53;;;16.40;52.10;;;;;;5092035;28;20615;-52
2021/09/17 04:34:58;;;;;;;8.90;5.82;;;16.40;52.00;;;;;;5091310;28;20210;-60
2021/09/17 04:37:30;;;;;;;10.35;6.40;;;16.40;52.00;;;;;;5092836;28;20209;-58
2021/09/17 04:39:59;;;;;;;10.20;5.93;;;16.40;51.90;;;;;;5093186;28;20217;-59
2021/09/17 04:42:29;;;;;;;11.35;5.82;;;16.50;51.80;;;;;;5090322;28;20469;-55
2021/09/17 04:44:59;;;;;;;10.15;6.05;;;16.50;51.70;;;;;;5091840;28;20213;-59
2021/09/17 04:47:29;;;;;;;10.02;5.80;;;16.50;51.60;;;;;;5091896;28;20259;-58
2021/09/17 04:50:02;;;;;;;9.20;5.88;;;16.50;51.60;;;;;;5093039;28;20254;-59
2021/09/17 04:52:33;;;;;;;9.75;5.40;;;16.50;51.50;;;;;;5091948;28;20229;-57
2021/09/17 04:55:03;;;;;;;9.20;5.95;;;16.50;51.50;;;;;;5091381;28;20198;-59
2021/09/17 04:57:33;;;;;;;8.40;5.47;;;16.50;51.40;;;;;;5091741;28;20214;-50
2021/09/17 05:00:03;;;;;;;8.25;5.90;;;16.50;51.40;;;;;;5091332;28;20673;-55
2021/09/17 05:02:33;;;;;;;9.40;5.63;;;16.50;51.40;;;;;;5092036;28;20218;-47
2021/09/17 05:05:02;;;;;;;8.80;5.97;;;16.50;51.40;;;;;;5086384;28;20206;-58
2021/09/17 05:07:36;;;;;;;8.48;5.75;;;16.60;51.30;;;;;;5072330;28;20258;-56
2021/09/17 05:10:07;;;;;;;7.53;5.25;;;16.50;51.30;;;;;;5071738;28;20756;-55
2021/09/17 05:12:37;;;;;;;8.85;6.00;;;16.60;51.40;;;;;;5071628;28;20226;-55
2021/09/17 05:15:07;;;;;;;8.88;5.88;;;16.50;51.30;;;;;;5071379;28;20203;-59
2021/09/17 05:17:37;;;;;;;6.90;4.97;;;16.50;51.30;;;;;;5072151;28;20663;-58
2021/09/17 05:20:07;;;;;;;8.15;5.32;;;16.50;51.30;;;;;;5072384;28;20589;-54
2021/09/17 05:22:38;;;;;;;8.45;5.63;;;16.50;51.30;;;;;;5072146;28;20227;-59
2021/09/17 05:25:09;;;;;;;8.10;5.40;;;16.60;51.30;;;;;;5072291;28;20207;-51
2021/09/17 05:27:39;;;;;;;7.22;5.15;;;16.50;51.30;;;;;;5074383;28;20207;-47
2021/09/17 05:30:09;;;;;;;9.20;5.82;;;16.60;51.30;;;;;;5091337;28;20221;-50
2021/09/17 05:32:40;;;;;;;7.85;5.25;;;16.50;51.30;;;;;;5091707;28;20233;-50
2021/09/17 05:35:10;;;;;;;7.63;5.05;;;16.50;51.20;;;;;;5092030;28;20202;-58
2021/09/17 05:37:41;;;;;;;7.82;5.32;;;16.50;51.20;;;;;;5092505;28;20237;-51
2021/09/17 05:40:12;;;;;;;8.63;5.70;;;16.50;51.20;;;;;;5091916;28;20198;-56
2021/09/17 05:42:42;;;;;;;8.00;5.70;;;16.50;51.20;;;;;;5092090;28;20634;-50
2021/09/17 05:45:12;;;;;;;8.73;5.68;;;16.50;51.30;;;;;;5091786;28;20206;-53
2021/09/17 05:47:43;;;;;;;7.95;4.80;;;16.50;51.30;;;;;;5091725;28;20206;-55
2021/09/17 05:50:13;;;;;;;7.40;4.90;;;16.50;51.30;;;;;;5092337;28;20222;-59
2021/09/17 05:52:44;;;;;;;8.35;5.07;;;16.40;51.30;;;;;;5092307;28;20232;-53
2021/09/17 05:55:14;;;;;;;8.40;5.47;;;16.40;51.30;;;;;;5092103;28;20213;-58
2021/09/17 05:57:44;;;;;;;8.73;5.07;;;16.40;51.30;;;;;;5091656;28;20205;-55
2021/09/17 06:00:15;;;;;;;7.43;5.07;;;16.40;51.30;;;;;;5091317;28;20210;-57
2021/09/17 06:02:44;;;;;;;10.02;4.47;;;16.40;51.30;;;;;;5102878;22;20770;-59
2021/09/17 06:05:14;;;;;;;7.30;4.60;;;16.40;50.00;;;;;;5091034;28;20206;-56
2021/09/17 06:07:45;;;;;;;8.50;5.03;;;16.40;50.10;;;;;;5091371;28;20213;-56
2021/09/17 06:10:15;;;;;;;7.55;4.40;;;16.30;50.20;;;;;;5091038;28;20222;-56
2021/09/17 06:12:45;;;;;;;8.68;4.50;;;16.30;50.30;;;;;;5091103;28;20229;-56
2021/09/17 06:15:16;;;;;;;7.78;4.47;;;16.40;50.40;;;;;;5091311;28;20206;-51
2021/09/17 06:17:46;;;;;;;7.75;4.70;;;16.30;50.40;;;;;;5090984;28;20201;-51
2021/09/17 06:20:15;;;;;;;8.35;4.80;;;16.40;50.40;;;;;;5091049;28;20227;-55
2021/09/17 06:22:46;;;;;;;8.43;4.70;;;16.30;50.50;;;;;;5090697;28;20230;-57
2021/09/17 06:25:16;;;;;;;7.10;3.97;;;16.30;50.50;;;;;;5090618;28;20202;-57
2021/09/17 06:27:46;;;;;;;6.53;4.03;;;16.30;50.50;;;;;;5090944;28;20210;-57
2021/09/17 06:30:16;;;;;;;6.55;4.40;;;16.30;50.60;;;;;;5090897;28;20553;-56
2021/09/17 06:32:46;;;;;;;7.38;4.40;;;16.30;51.20;;;;;;5091067;28;20222;-56
2021/09/17 06:35:16;;;;;;;6.85;4.13;;;16.30;50.60;;;;;;5090853;28;20263;-56
2021/09/17 06:37:50;;;;;;;7.18;3.95;;;16.20;50.50;;;;;;5090724;28;20198;-56
2021/09/17 06:40:20;;;;;;;5.65;4.22;;;16.30;50.50;;;;;;5091085;28;20221;-57
2021/09/17 06:42:50;;;;;;;5.93;4.13;;;16.20;50.50;;;;;;5091006;28;20230;-55
2021/09/17 06:45:20;;;;;;;7.28;4.35;;;16.20;50.60;;;;;;5090928;28;20212;-50
2021/09/17 06:47:50;;;;;;;5.25;3.90;;;16.20;50.60;;;;;;5090388;28;20205;-56
2021/09/17 06:50:20;;;;;;;7.18;4.05;;;16.20;50.70;;;;;;5090258;28;20682;-58
2021/09/17 06:52:52;;;;;;;5.53;3.70;;;16.20;50.80;;;;;;5090219;28;20238;-55
2021/09/17 06:55:22;;;;;;;6.07;4.03;;;16.20;50.80;;;;;;5090476;28;20662;-56
2021/09/17 06:57:53;;;;;;;5.45;3.95;;;16.20;50.80;;;;;;5090512;28;20206;-52
2021/09/17 07:00:24;;;;;;;6.78;3.92;;;16.20;50.80;;;;;;5090149;28;20202;-53
2021/09/17 07:02:54;;;;;;;5.32;3.83;;;16.10;50.80;;;;;;5101932;22;20222;-50
2021/09/17 07:05:24;;;;;;;6.70;3.65;;;16.10;50.90;;;;;;5088861;28;20668;-56
2021/09/17 07:08:00;;;;;;;6.55;3.58;;;16.10;50.90;;;;;;5090426;28;20669;-57
2021/09/17 07:10:30;;;;;;;6.80;3.88;;;16.10;50.80;;;;;;5090508;28;20226;-57
2021/09/17 07:13:00;;;;;;;8.68;4.13;;;16.10;51.50;;;;;;5090591;28;20222;-56
2021/09/17 07:15:30;;;;;;;6.75;4.15;;;16.10;50.90;;;;;;5090637;28;20208;-55
2021/09/17 07:18:00;;;;;;;4.95;3.50;;;16.10;50.80;;;;;;5090559;28;20213;-53
2021/09/17 07:20:29;;;;;;;4.95;3.42;;;16.10;50.80;;;;;;5090338;28;20213;-53
2021/09/17 07:23:00;;;;;;;6.00;3.85;;;16.10;50.90;;;;;;5090627;28;20240;-51
2021/09/17 07:25:30;;;;;;;5.53;4.10;;;16.10;50.90;;;;;;5106503;28;20197;-54
2021/09/17 07:28:00;;;;;;;5.35;3.72;;;16.10;50.90;;;;;;5104887;28;20567;-52
2021/09/17 07:30:31;;;;;;;5.20;3.67;;;16.00;51.00;;;;;;5090200;28;20698;-54
2021/09/17 07:33:01;;;;;;;5.13;3.92;;;16.00;51.60;;;;;;5090163;28;20226;-54
2021/09/17 07:35:31;;;;;;;6.30;3.30;;;16.00;51.00;;;;;;5090128;28;20201;-52
2021/09/17 07:38:02;;;;;;;4.65;3.33;;;16.00;51.00;;;;;;5090049;28;20209;-58
2021/09/17 07:40:31;;;;;;;5.20;3.25;;;16.00;51.10;;;;;;5089627;28;20201;-54
2021/09/17 07:43:01;;;;;;;4.47;3.42;;;16.00;51.00;;;;;;5089521;28;20225;-53
2021/09/17 07:45:31;;;;;;;5.22;3.58;;;16.00;51.10;;;;;;5089932;28;20204;-54
2021/09/17 07:48:02;;;;;;;4.75;3.20;;;15.90;51.30;;;;;;5089921;28;20210;-58
2021/09/17 07:50:32;;;;;;;6.90;3.33;;;16.00;52.20;;;;;;5092276;28;20689;-51
2021/09/17 07:53:03;;;;;;;3.88;3.15;;;16.00;52.30;;;;;;5089450;28;20226;-56
2021/09/17 07:55:34;;;;;;;4.93;3.30;;;16.00;52.20;;;;;;5089715;28;20289;-56
2021/09/17 07:58:05;;;;;;;5.30;2.90;;;16.00;52.20;;;;;;5089672;28;20213;-53
2021/09/17 08:00:35;;;;;;;6.15;3.70;;;16.00;52.00;;;;;;5089650;28;20680;-51
2021/09/17 08:03:05;;;;;;;4.65;3.28;;;16.00;52.00;;;;;;5090377;28;20596;-53
2021/09/17 08:05:35;;;;;;;4.65;3.50;;;16.00;51.90;;;;;;5089474;28;20198;-52
2021/09/17 08:08:06;;;;;;;5.63;3.28;;;16.00;51.90;;;;;;5089517;28;20213;-51
2021/09/17 08:10:36;;;;;;;4.35;3.20;;;15.90;51.80;;;;;;5089702;28;20580;-57
2021/09/17 08:13:06;;;;;;;5.03;3.13;;;15.90;51.80;;;;;;5089778;28;20634;-50
2021/09/17 08:15:35;;;;;;;4.65;3.17;;;15.90;51.80;;;;;;5090155;28;20259;-54
2021/09/17 08:18:05;;;;;;;5.03;2.95;;;15.90;51.70;;;;;;5092845;28;20202;-53
2021/09/17 08:20:37;;;;;;;3.67;2.70;;;15.90;51.70;;;;;;5093020;28;20206;-52
2021/09/17 08:23:08;;;;;;;4.20;3.17;;;15.80;51.70;;;;;;5093275;28;20218;-54
2021/09/17 08:25:38;;;;;;;5.15;3.00;;;15.80;51.70;;;;;;5093120;28;20212;-59
2021/09/17 08:28:07;;;;;;;3.42;2.80;;;15.80;51.70;;;;;;5092386;28;20217;-57
2021/09/17 08:30:37;;;;;;;3.67;2.78;;;15.80;51.80;;;;;;5092436;28;20229;-57
2021/09/17 08:33:07;;;;;;;3.58;2.80;;;15.80;51.80;;;;;;5092541;28;20230;-53
2021/09/17 08:35:37;;;;;;;3.78;2.83;;;15.80;51.80;;;;;;5092547;28;20205;-55
2021/09/17 08:38:08;;;;;;;5.20;2.95;;;15.70;51.80;;;;;;5093026;28;20267;-53
2021/09/17 08:40:38;;;;;;;4.13;2.78;;;15.70;51.80;;;;;;5093149;28;20209;-54
2021/09/17 08:43:08;;;;;;;4.05;2.63;;;15.70;51.80;;;;;;5092694;28;20226;-54
2021/09/17 08:45:38;;;;;;;3.75;2.95;;;15.70;51.90;;;;;;5092342;28;20225;-51
2021/09/17 08:48:08;;;;;;;4.75;3.03;;;15.70;51.80;;;;;;5092689;28;20214;-55
2021/09/17 08:50:37;;;;;;;3.42;2.95;;;15.60;51.80;;;;;;5092247;28;20229;-50
2021/09/17 08:53:08;;;;;;;4.18;2.90;;;15.60;51.80;;;;;;5092252;28;20218;-51
2021/09/17 08:55:38;;;;;;;4.00;2.58;;;15.60;51.80;;;;;;5092401;28;20202;-53
2021/09/17 08:58:08;;;;;;;4.18;2.72;;;15.60;51.80;;;;;;5089155;28;20210;-54
2021/09/17 09:00:41;;;;;;;3.05;2.40;;;15.60;51.80;;;;;;5092282;28;20206;-53
2021/09/17 09:03:15;;;;;;;3.67;2.88;;;15.50;51.80;;;;;;5092292;28;20248;-46
2021/09/17 09:05:45;;;;;;;3.13;2.78;;;15.50;51.80;;;;;;5073745;28;20285;-46
2021/09/17 09:08:16;;;;;;;3.80;2.92;;;15.50;51.80;;;;;;5091811;28;20202;-51
2021/09/17 09:10:46;;;;;;;4.13;2.40;;;15.50;51.80;;;;;;5090781;28;20226;-48
2021/09/17 09:13:16;;;;;;;3.95;3.13;;;15.50;51.80;;;;;;5090324;28;20214;-49
2021/09/17 09:15:46;;;;;;;3.70;2.70;;;15.50;51.90;;;;;;5091227;28;20262;-49
2021/09/17 09:18:18;;;;;;;4.35;2.85;;;15.40;51.80;;;;;;5091418;28;20213;-53
2021/09/17 09:20:48;;;;;;;3.67;2.50;;;15.40;51.90;;;;;;5091506;28;20206;-53
2021/09/17 09:23:20;;;;;;;3.92;2.90;;;15.40;51.90;;;;;;5097101;28;20270;-54
2021/09/17 09:25:59;;;;;;;3.47;2.55;;;15.40;51.90;;;;;;5093951;28;20217;-49
2021/09/17 09:28:32;;;;;;;3.50;2.42;;;15.40;51.90;;;;;;5088120;28;20202;-53
2021/09/17 09:31:05;;;;;;;3.30;2.92;;;15.40;51.90;;;;;;5091643;28;20218;-50
2021/09/17 09:33:35;;;;;;;3.60;3.00;;;15.30;51.90;;;;;;5090782;28;20484;-48
2021/09/17 09:36:07;;;;;;;3.85;2.85;;;15.30;51.90;;;;;;5091320;28;20206;-47
2021/09/17 09:38:43;;;;;;;3.63;2.95;;;15.30;51.90;;;;;;5073720;28;20210;-53
2021/09/17 09:41:14;;;;;;;4.20;2.90;;;15.30;52.00;;;;;;5071514;28;20206;-49
2021/09/17 09:43:50;;;;;;;3.50;2.85;;;15.20;51.90;;;;;;5080143;28;20216;-46
2021/09/17 09:46:24;;;;;;;3.67;2.30;;;15.20;52.00;;;;;;5090201;28;20206;-52
2021/09/17 09:49:09;;;;;;;3.88;3.25;;;15.20;51.90;;;;;;5090894;28;20216;-51
2021/09/17 09:51:39;;;;;;;2.88;2.58;;;15.20;52.00;;;;;;5089211;28;20256;-54
2021/09/17 09:54:10;;;;;;;4.78;3.28;;;15.20;52.00;;;;;;5091241;28;20641;-48
2021/09/17 09:56:42;;;;;;;3.47;2.97;;;15.20;52.00;;;;;;5089932;28;20249;-47
2021/09/17 09:59:12;;;;;;;3.20;2.65;;;15.10;52.00;;;;;;5085954;28;20256;-46
2021/09/17 10:01:42;;;;;;;4.47;2.80;;;15.10;52.00;;;;;;5098014;28;20262;-47
2021/09/17 10:04:11;;;;;;;5.15;4.03;;;15.10;52.00;;;;;;5110203;28;20229;-48
2021/09/17 10:06:41;;;;;;;3.92;3.10;;;15.10;52.00;;;;;;5110613;28;20212;-48
2021/09/17 10:09:13;;;;;;;3.83;2.80;;;15.10;52.00;;;;;;5090951;28;20202;-46
2021/09/17 10:11:43;;;;;;;3.65;2.97;;;15.10;52.00;;;;;;5091174;28;20218;-46
2021/09/17 10:14:14;;;;;;;4.78;3.00;;;15.00;52.00;;;;;;5089884;28;20313;-48
2021/09/17 10:16:45;;;;;;;3.45;3.15;;;15.00;52.00;;;;;;5090505;28;20214;-46
2021/09/17 10:19:15;;;;;;;4.25;3.53;;;15.00;52.00;;;;;;5090776;28;20213;-48
2021/09/17 10:21:55;;;;;;;4.57;3.20;;;14.90;51.90;;;;;;5090260;28;20202;-46
2021/09/17 10:24:39;;;;;;;3.58;2.88;;;14.90;52.00;;;;;;5090268;28;20225;-46
2021/09/17 10:27:19;;;;;;;4.13;3.20;;;14.90;52.00;;;;;;5089913;28;20202;-46
2021/09/17 10:29:59;;;;;;;3.88;3.40;;;14.90;52.00;;;;;;5069781;28;20305;-46
2021/09/17 10:32:36;;;;;;;4.82;3.00;;;14.90;52.00;;;;;;5069292;28;20666;-49
2021/09/17 10:35:11;;;;;;;4.88;3.30;;;14.80;52.00;;;;;;5106292;28;20577;-47
2021/09/17 10:38:00;;;;;;;4.97;3.65;;;14.90;52.00;;;;;;5099912;28;20201;-47
2021/09/17 10:40:40;;;;;;;3.70;3.20;;;14.80;52.10;;;;;;5081489;28;20285;-49
2021/09/17 10:43:23;;;;;;;5.65;3.55;;;14.80;52.00;;;;;;5110413;28;20298;-54
2021/09/17 10:45:53;;;;;;;3.97;3.25;;;14.80;52.10;;;;;;5110780;28;20209;-47
2021/09/17 10:48:23;;;;;;;4.55;3.67;;;14.70;52.00;;;;;;5091023;28;21019;-53
2021/09/17 10:50:54;;;;;;;4.13;3.38;;;14.80;52.10;;;;;;5090319;28;20261;-51
2021/09/17 10:54:02;;;;;;;4.43;3.50;;;14.70;52.10;;;;;;5095283;28;20233;-50
2021/09/17 10:57:02;;;;;;;4.80;3.60;;;14.70;52.10;;;;;;5110016;28;20201;-55
2021/09/17 10:59:42;;;;;;;4.90;3.70;;;14.70;52.10;;;;;;5087516;28;20292;-54
2021/09/17 11:02:12;;;;;;;5.47;4.07;;;14.70;52.10;;;;;;5090503;28;20202;-55
2021/09/17 11:04:42;;;;;;;4.47;4.00;;;14.70;52.10;;;;;;5090501;28;20271;-56
2021/09/17 11:07:33;;;;;;;4.18;3.60;;;14.60;52.10;;;;;;5090316;28;20650;-54
2021/09/17 11:10:04;;;;;;;5.00;3.75;;;14.60;52.10;;;;;;5090183;28;20778;-53
2021/09/17 11:12:35;;;;;;;5.85;4.22;;;14.60;52.10;;;;;;5090084;28;20661;-48
2021/09/17 11:15:08;;;;;;;6.10;4.15;;;14.60;52.20;;;;;;5092662;28;20198;-55
2021/09/17 11:17:44;;;;;;;6.57;4.35;;;14.60;52.20;;;;;;5090578;28;20218;-52
2021/09/17 11:20:19;;;;;;;5.97;4.35;;;14.50;52.10;;;;;;5090755;28;20205;-56
2021/09/17 11:23:01;;;;;;;4.70;4.07;;;14.50;52.10;;;;;;5090231;28;20229;-50
2021/09/17 11:25:35;;;;;;;7.00;4.40;;;14.50;52.10;;;;;;5090357;28;20206;-56
2021/09/17 11:28:07;;;;;;;6.47;4.57;;;14.50;52.10;;;;;;5090441;28;20201;-55
2021/09/17 11:30:37;;;;;;;6.40;4.82;;;14.50;52.10;;;;;;5090164;28;20229;-49
2021/09/17 11:33:24;;;;;;;6.57;4.72;;;14.50;52.20;;;;;;5090445;28;20694;-56
2021/09/17 11:35:54;;;;;;;5.82;4.43;;;14.40;52.10;;;;;;5090163;28;20209;-49
2021/09/17 11:38:26;;;;;;;5.70;4.50;;;14.40;52.10;;;;;;5090310;28;20213;-55
2021/09/17 11:40:58;;;;;;;6.07;3.95;;;14.40;52.20;;;;;;5090483;28;20206;-54
2021/09/17 11:43:29;;;;;;;5.60;4.47;;;14.40;52.20;;;;;;5090042;28;20225;-51
2021/09/17 11:45:59;;;;;;;6.05;4.40;;;14.40;52.20;;;;;;5090092;28;20201;-54
2021/09/17 11:48:30;;;;;;;6.07;4.40;;;14.40;52.20;;;;;;5092229;28;20209;-51
2021/09/17 11:50:59;;;;;;;4.90;4.40;;;14.30;52.20;;;;;;5091265;28;20253;-57
2021/09/17 11:53:29;;;;;;;4.93;4.38;;;14.30;52.20;;;;;;5093841;28;20222;-53
2021/09/17 11:55:59;;;;;;;5.32;3.95;;;14.30;52.20;;;;;;5093606;28;20217;-55
2021/09/17 11:58:30;;;;;;;6.22;4.35;;;14.30;52.20;;;;;;5093642;28;20213;-54
2021/09/17 12:01:00;;;;;;;5.55;4.72;;;14.30;52.20;;;;;;5093597;28;20202;-57
2021/09/17 12:03:31;;;;;;;6.68;4.45;;;14.30;52.20;;;;;;5093773;28;20586;-54
2021/09/17 12:06:01;;;;;;;5.05;4.10;;;14.30;52.20;;;;;;5093174;28;20202;-55
2021/09/17 12:08:30;;;;;;;6.57;4.32;;;14.20;52.10;;;;;;5093691;28;20210;-54
2021/09/17 12:11:02;;;;;;;6.18;4.60;;;14.20;52.20;;;;;;5093494;28;20218;-52
2021/09/17 12:13:33;;;;;;;5.90;4.20;;;14.20;52.20;;;;;;5093236;28;20232;-52
2021/09/17 12:16:06;;;;;;;5.40;4.25;;;14.20;52.20;;;;;;5093272;28;20225;-53
2021/09/17 12:18:36;;;;;;;4.95;3.72;;;14.20;52.20;;;;;;5093698;28;20201;-49
2021/09/17 12:21:05;;;;;;;5.50;4.35;;;14.20;52.20;;;;;;5093152;28;20198;-51
2021/09/17 12:23:38;;;;;;;5.68;4.15;;;14.20;52.10;;;;;;5093472;28;20225;-54
2021/09/17 12:26:11;;;;;;;5.47;3.88;;;14.10;52.10;;;;;;5093344;28;20202;-54
2021/09/17 12:28:46;;;;;;;4.68;4.13;;;14.10;52.10;;;;;;5092584;28;20217;-55
2021/09/17 12:31:31;;;;;;;5.28;4.10;;;14.10;52.10;;;;;;5092027;28;20217;-54
2021/09/17 12:34:10;;;;;;;7.18;4.50;;;14.00;52.10;;;;;;5093023;28;20234;-54
2021/09/17 12:36:40;;;;;;;5.47;3.92;;;14.00;52.10;;;;;;5093235;28;20199;-50
2021/09/17 12:39:10;;;;;;;4.05;3.58;;;14.00;52.10;;;;;;5093184;28;20206;-56
2021/09/17 12:41:40;;;;;;;5.72;4.47;;;14.00;52.10;;;;;;5093124;28;20202;-50
2021/09/17 12:44:11;;;;;;;5.53;4.03;;;14.00;52.10;;;;;;5093019;28;20230;-55
2021/09/17 12:46:43;;;;;;;5.30;3.78;;;14.00;52.10;;;;;;5093101;28;20210;-57
2021/09/17 12:49:15;;;;;;;6.25;4.00;;;14.00;52.20;;;;;;5092909;28;20230;-51
2021/09/17 12:51:55;;;;;;;4.57;3.70;;;14.00;52.20;;;;;;5092859;28;20233;-48
2021/09/17 12:54:26;;;;;;;5.85;3.88;;;13.90;52.10;;;;;;5092486;28;20339;-55
2021/09/17 12:57:11;;;;;;;5.35;3.50;;;13.90;52.10;;;;;;5091741;28;20213;-53
2021/09/17 12:59:56;;;;;;;4.65;3.63;;;13.90;52.10;;;;;;5092164;28;20279;-50
2021/09/17 13:02:27;;;;;;;5.15;4.03;;;13.90;52.10;;;;;;5091782;28;20205;-53
2021/09/17 13:05:04;;;;;;;4.80;3.75;;;13.90;52.20;;;;;;5092584;28;20202;-54
2021/09/17 13:07:33;;;;;;;6.45;3.85;;;13.80;52.10;;;;;;5092931;28;20277;-54